createdAt,value
2022-10-07T00:00:03.928Z,102805.84
2022-10-07T00:02:06.886Z,102812.84
2022-10-07T00:04:08.338Z,102809.31
2022-10-07T00:06:15.567Z,102800.53
2022-10-07T00:08:16.971Z,102809.31
2022-10-07T00:10:18.418Z,102801.38
2022-10-07T00:12:19.844Z,102795.22
2022-10-07T00:14:21.251Z,102801.34
2022-10-07T00:16:30.836Z,102792.53
2022-10-07T00:18:32.970Z,102782.78
2022-10-07T00:20:39.056Z,102783.66
2022-10-07T00:22:40.519Z,102779.25
2022-10-07T00:24:41.927Z,102784.50
2022-10-07T00:26:43.354Z,102789.75
2022-10-07T00:28:45.297Z,102776.59
2022-10-07T00:30:46.800Z,102783.63
2022-10-07T00:32:48.255Z,102780.97
2022-10-07T00:34:49.866Z,102783.63
2022-10-07T00:36:51.386Z,102775.72
2022-10-07T00:38:57.693Z,102767.81
2022-10-07T00:40:59.120Z,102764.28
2022-10-07T00:43:00.530Z,102761.63
2022-10-07T00:45:02.132Z,102756.31
2022-10-07T00:47:29.773Z,102751.03
2022-10-07T00:49:37.344Z,102745.78
2022-10-07T00:51:40.275Z,102741.38
2022-10-07T00:53:42.752Z,102744.03
2022-10-07T00:55:44.760Z,102741.41
2022-10-07T00:57:47.972Z,102740.53
2022-10-07T00:59:50.266Z,102740.50
2022-10-07T01:01:51.693Z,102736.09
2022-10-07T01:03:54.215Z,102740.47
2022-10-07T01:05:55.628Z,102741.34
2022-10-07T01:07:59.402Z,102731.66
2022-10-07T01:10:02.071Z,102731.66
2022-10-07T01:12:25.815Z,102729.88
2022-10-07T01:14:45.997Z,102731.59
2022-10-07T01:16:50.402Z,102725.47
2022-10-07T01:19:00.668Z,102725.44
2022-10-07T01:21:25.106Z,102716.66
2022-10-07T01:23:45.089Z,102724.56
2022-10-07T01:26:12.761Z,102721.94
2022-10-07T01:28:21.533Z,102718.41
2022-10-07T01:30:22.983Z,102712.19
2022-10-07T01:32:27.969Z,102713.91
2022-10-07T01:34:30.046Z,102708.63
2022-10-07T01:36:34.016Z,102705.13
2022-10-07T01:38:38.164Z,102705.09
2022-10-07T01:40:48.583Z,102709.47
2022-10-07T01:42:51.957Z,102697.16
2022-10-07T01:44:56.909Z,102689.25
2022-10-07T01:46:59.054Z,102689.22
2022-10-07T01:49:01.048Z,102686.56
2022-10-07T01:51:02.690Z,102678.66
2022-10-07T01:53:23.219Z,102680.41
2022-10-07T01:55:50.852Z,102675.09
2022-10-07T01:58:08.701Z,102676.84
2022-10-07T02:00:12.781Z,102677.72
2022-10-07T02:02:47.217Z,102665.41
2022-10-07T02:05:17.909Z,102667.16
2022-10-07T02:07:29.372Z,102661.88
2022-10-07T02:09:41.098Z,102663.63
2022-10-07T02:11:45.054Z,102655.72
2022-10-07T02:14:11.970Z,102656.59
2022-10-07T02:16:19.782Z,102651.34
2022-10-07T02:18:21.415Z,102648.69
2022-10-07T02:20:26.728Z,102649.53
2022-10-07T02:22:29.407Z,102647.81
2022-10-07T02:24:34.685Z,102649.56
2022-10-07T02:26:37.316Z,102640.78
2022-10-07T02:28:42.575Z,102645.19
2022-10-07T02:30:49.286Z,102636.41
2022-10-07T02:32:55.034Z,102632.03
2022-10-07T02:35:03.082Z,102632.03
2022-10-07T02:37:10.572Z,102627.56
2022-10-07T02:39:13.061Z,102624.09
2022-10-07T02:41:31.391Z,102624.09
2022-10-07T02:43:56.412Z,102623.13
2022-10-07T02:46:09.274Z,102627.53
2022-10-07T02:48:19.986Z,102622.25
2022-10-07T02:50:25.311Z,102625.75
2022-10-07T02:52:31.228Z,102625.75
2022-10-07T02:54:42.678Z,102625.69
2022-10-07T02:56:45.244Z,102619.53
2022-10-07T02:58:47.573Z,102616.00
2022-10-07T03:00:53.006Z,102622.16
2022-10-07T03:02:57.889Z,102616.91
2022-10-07T03:04:59.419Z,102608.13
2022-10-07T03:07:01.769Z,102610.75
2022-10-07T03:09:04.267Z,102608.13
2022-10-07T03:11:05.702Z,102606.38
2022-10-07T03:13:07.201Z,102605.50
2022-10-07T03:15:10.878Z,102598.47
2022-10-07T03:17:12.358Z,102597.59
2022-10-07T03:19:13.776Z,102595.88
2022-10-07T03:21:16.156Z,102593.22
2022-10-07T03:23:17.575Z,102595.00
2022-10-07T03:25:19.425Z,102596.72
2022-10-07T03:27:21.064Z,102602.00
2022-10-07T03:29:22.838Z,102595.84
2022-10-07T03:31:25.318Z,102593.19
2022-10-07T03:33:27.289Z,102586.16
2022-10-07T03:35:29.522Z,102586.16
2022-10-07T03:37:31.129Z,102577.38
2022-10-07T03:39:32.797Z,102580.00
2022-10-07T03:41:34.295Z,102575.59
2022-10-07T03:43:35.748Z,102577.34
2022-10-07T03:45:44.277Z,102576.44
2022-10-07T03:47:46.194Z,102574.69
2022-10-07T03:49:48.007Z,102576.41
2022-10-07T03:51:49.437Z,102565.00
2022-10-07T03:53:54.541Z,102564.09
2022-10-07T03:55:56.680Z,102562.34
2022-10-07T03:57:59.645Z,102561.47
2022-10-07T04:00:01.407Z,102557.06
2022-10-07T04:02:02.930Z,102556.16
2022-10-07T04:04:04.425Z,102557.03
2022-10-07T04:06:06.331Z,102548.25
2022-10-07T04:08:11.073Z,102548.22
2022-10-07T04:10:15.217Z,102538.56
2022-10-07T04:12:16.825Z,102539.41
2022-10-07T04:14:18.278Z,102540.25
2022-10-07T04:16:20.045Z,102535.88
2022-10-07T04:18:22.721Z,102531.44
2022-10-07T04:20:25.549Z,102534.03
2022-10-07T04:22:26.983Z,102532.25
2022-10-07T04:24:28.419Z,102534.00
2022-10-07T04:26:29.865Z,102529.59
2022-10-07T04:28:31.408Z,102531.34
2022-10-07T04:30:38.141Z,102525.19
2022-10-07T04:32:39.556Z,102530.44
2022-10-07T04:34:40.996Z,102526.06
2022-10-07T04:36:42.425Z,102526.94
2022-10-07T04:38:45.220Z,102529.59
2022-10-07T04:40:50.009Z,102523.47
2022-10-07T04:43:09.838Z,102525.22
2022-10-07T04:45:11.520Z,102529.59
2022-10-07T04:47:13.028Z,102519.97
2022-10-07T04:49:14.613Z,102526.09
2022-10-07T04:51:16.118Z,102519.97
2022-10-07T04:53:18.328Z,102519.09
2022-10-07T04:55:19.745Z,102521.72
2022-10-07T04:57:21.160Z,102521.72
2022-10-07T04:59:24.117Z,102513.81
2022-10-07T05:01:26.396Z,102512.06
2022-10-07T05:03:32.163Z,102505.94
2022-10-07T05:05:34.630Z,102516.44
2022-10-07T05:07:38.457Z,102505.03
2022-10-07T05:09:39.902Z,102509.44
2022-10-07T05:11:41.374Z,102505.06
2022-10-07T05:13:42.861Z,102507.72
2022-10-07T05:16:03.437Z,102521.81
2022-10-07T05:18:07.040Z,102519.19
2022-10-07T05:20:10.070Z,102509.50
2022-10-07T05:22:11.581Z,102509.50
2022-10-07T05:24:13.040Z,102507.75
2022-10-07T05:26:15.397Z,102502.50
2022-10-07T05:28:16.863Z,102508.63
2022-10-07T05:30:19.121Z,102505.97
2022-10-07T05:32:21.243Z,102511.25
2022-10-07T05:34:22.696Z,102512.97
2022-10-07T05:36:24.229Z,102510.34
2022-10-07T05:38:26.207Z,102512.09
2022-10-07T05:40:28.131Z,102512.06
2022-10-07T05:42:29.549Z,102503.31
2022-10-07T05:44:32.285Z,102500.69
2022-10-07T05:46:33.730Z,102498.97
2022-10-07T05:48:39.319Z,102505.13
2022-10-07T05:50:41.114Z,102505.13
2022-10-07T05:52:45.172Z,102500.78
2022-10-07T05:54:46.712Z,102495.47
2022-10-07T05:56:48.567Z,102494.66
2022-10-07T05:58:51.400Z,102492.06
2022-10-07T06:00:54.162Z,102487.69
2022-10-07T06:02:55.713Z,102483.31
2022-10-07T06:04:57.230Z,102484.22
2022-10-07T06:06:58.676Z,102483.34
2022-10-07T06:09:20.095Z,102491.28
2022-10-07T06:11:40.211Z,102488.66
2022-10-07T06:13:41.643Z,102483.44
2022-10-07T06:15:43.084Z,102480.81
2022-10-07T06:17:45.658Z,102484.34
2022-10-07T06:19:47.302Z,102480.88
2022-10-07T06:21:49.827Z,102485.31
2022-10-07T06:23:52.070Z,102478.34
2022-10-07T06:25:56.367Z,102480.16
2022-10-07T06:27:58.378Z,102475.81
2022-10-07T06:30:00.081Z,102479.38
2022-10-07T06:32:01.760Z,102486.41
2022-10-07T06:34:03.263Z,102488.19
2022-10-07T06:36:06.308Z,102489.97
2022-10-07T06:38:07.847Z,102485.63
2022-10-07T06:40:09.880Z,102485.69
2022-10-07T06:42:11.350Z,102494.50
2022-10-07T06:44:12.761Z,102492.81
2022-10-07T06:46:19.358Z,102490.22
2022-10-07T06:48:20.824Z,102487.59
2022-10-07T06:50:22.467Z,102485.00
2022-10-07T06:52:23.892Z,102490.28
2022-10-07T06:54:25.438Z,102484.16
2022-10-07T06:56:26.977Z,102487.69
2022-10-07T06:58:28.960Z,102483.34
2022-10-07T07:00:30.387Z,102488.66
2022-10-07T07:02:33.204Z,102482.53
2022-10-07T07:04:34.754Z,102489.56
2022-10-07T07:06:37.105Z,102481.69
2022-10-07T07:08:41.047Z,102480.81
2022-10-07T07:10:44.046Z,102487.84
2022-10-07T07:12:46.142Z,102487.88
2022-10-07T07:14:48.176Z,102485.28
2022-10-07T07:16:49.679Z,102487.03
2022-10-07T07:18:55.925Z,102487.06
2022-10-07T07:21:02.545Z,102484.44
2022-10-07T07:23:06.490Z,102485.31
2022-10-07T07:25:09.994Z,102480.06
2022-10-07T07:27:12.669Z,102471.28
2022-10-07T07:29:14.813Z,102469.50
2022-10-07T07:31:16.254Z,102472.16
2022-10-07T07:33:18.029Z,102480.09
2022-10-07T07:35:19.480Z,102477.44
2022-10-07T07:37:21.223Z,102471.28
2022-10-07T07:39:22.687Z,102468.66
2022-10-07T07:41:30.437Z,102471.25
2022-10-07T07:43:31.938Z,102468.63
2022-10-07T07:45:36.859Z,102465.94
2022-10-07T07:47:38.536Z,102468.56
2022-10-07T07:49:39.974Z,102466.78
2022-10-07T07:51:43.546Z,102464.16
2022-10-07T07:53:46.048Z,102456.19
2022-10-07T07:55:56.734Z,102452.66
2022-10-07T07:57:58.433Z,102457.91
2022-10-07T07:59:59.967Z,102462.25
2022-10-07T08:02:02.253Z,102467.50
2022-10-07T08:04:04.242Z,102462.22
2022-10-07T08:06:08.028Z,102461.31
2022-10-07T08:08:10.833Z,102458.59
2022-10-07T08:10:12.342Z,102458.56
2022-10-07T08:12:14.701Z,102461.13
2022-10-07T08:14:17.379Z,102466.38
2022-10-07T08:16:23.602Z,102456.69
2022-10-07T08:18:25.074Z,102450.47
2022-10-07T08:20:26.790Z,102453.06
2022-10-07T08:22:28.208Z,102447.72
2022-10-07T08:24:29.629Z,102454.72
2022-10-07T08:26:32.855Z,102452.91
2022-10-07T08:28:35.607Z,102454.63
2022-10-07T08:30:37.085Z,102439.63
2022-10-07T08:32:38.538Z,102442.22
2022-10-07T08:34:40.249Z,102450.09
2022-10-07T08:36:44.008Z,102443.88
2022-10-07T08:38:49.379Z,102444.69
2022-10-07T08:40:53.517Z,102439.34
2022-10-07T08:42:55.104Z,102430.44
2022-10-07T08:44:56.625Z,102426.81
2022-10-07T08:47:06.244Z,102432.91
2022-10-07T08:49:16.999Z,102417.78
2022-10-07T08:51:21.101Z,102415.03
2022-10-07T08:53:33.899Z,102416.72
2022-10-07T08:55:56.753Z,102413.06
2022-10-07T08:58:27.011Z,102407.69
2022-10-07T09:00:28.622Z,102404.03
2022-10-07T09:03:07.418Z,102395.16
2022-10-07T09:05:21.214Z,102396.00
2022-10-07T09:07:34.599Z,102383.56
2022-10-07T09:09:40.866Z,102390.53
2022-10-07T09:11:45.659Z,102390.38
2022-10-07T09:13:54.656Z,102384.94
2022-10-07T09:16:11.933Z,102389.25
2022-10-07T09:18:20.055Z,102376.75
2022-10-07T09:20:28.734Z,102384.59
2022-10-07T09:22:38.770Z,102383.59
2022-10-07T09:24:40.239Z,102383.53
2022-10-07T09:26:41.706Z,102379.09
2022-10-07T09:28:43.256Z,102384.28
2022-10-07T09:30:44.877Z,102373.59
2022-10-07T09:32:49.361Z,102376.13
2022-10-07T09:34:52.210Z,102376.03
2022-10-07T09:37:10.862Z,102371.47
2022-10-07T09:39:15.920Z,102372.25
2022-10-07T09:41:19.863Z,102357.16
2022-10-07T09:43:21.351Z,102364.13
2022-10-07T09:45:28.064Z,102364.00
2022-10-07T09:47:37.089Z,102358.59
2022-10-07T09:49:42.792Z,102347.91
2022-10-07T09:51:58.643Z,102359.25
2022-10-07T09:54:05.744Z,102351.19
2022-10-07T09:56:33.068Z,102351.09
2022-10-07T09:58:34.505Z,102346.56
2022-10-07T10:00:43.766Z,102341.19
2022-10-07T10:02:51.765Z,102335.81
2022-10-07T10:04:56.057Z,102329.44
2022-10-07T10:07:03.549Z,102341.69
2022-10-07T10:09:05.012Z,102335.50
2022-10-07T10:11:25.847Z,102336.34
2022-10-07T10:13:35.995Z,102338.06
2022-10-07T10:15:40.827Z,102331.75
2022-10-07T10:17:42.373Z,102329.78
2022-10-07T10:19:43.796Z,102335.81
2022-10-07T10:21:58.414Z,102324.09
2022-10-07T10:24:06.204Z,102325.59
2022-10-07T10:26:33.662Z,102333.34
2022-10-07T10:28:47.647Z,102317.09
2022-10-07T10:30:57.811Z,102319.59
2022-10-07T10:33:16.038Z,102322.72
2022-10-07T10:35:31.966Z,102308.22
2022-10-07T10:37:57.970Z,102305.19
2022-10-07T10:40:02.353Z,102301.00
2022-10-07T10:42:10.491Z,102294.09
2022-10-07T10:44:33.541Z,102286.25
2022-10-07T10:47:04.071Z,102275.66
2022-10-07T10:49:28.441Z,102277.91
2022-10-07T10:51:55.705Z,102277.06
2022-10-07T10:54:26.405Z,102275.97
2022-10-07T10:56:28.477Z,102271.34
2022-10-07T10:58:49.146Z,102265.41
2022-10-07T11:01:13.623Z,102263.09
2022-10-07T11:03:25.830Z,102252.50
2022-10-07T11:05:40.299Z,102249.09
2022-10-07T11:08:04.981Z,102236.66
2022-10-07T11:10:22.896Z,102239.75
2022-10-07T11:12:44.760Z,102233.28
2022-10-07T11:14:55.752Z,102226.88
2022-10-07T11:17:05.217Z,102225.84
2022-10-07T11:19:06.596Z,102222.63
2022-10-07T11:21:21.548Z,102214.94
2022-10-07T11:23:44.137Z,102222.91
2022-10-07T11:26:31.113Z,102215.22
2022-10-07T11:28:40.886Z,102208.72
2022-10-07T11:31:11.109Z,102196.47
2022-10-07T11:33:22.953Z,102200.28
2022-10-07T11:36:03.289Z,102188.66
2022-10-07T11:38:10.466Z,102189.41
2022-10-07T11:40:11.920Z,102187.41
2022-10-07T11:42:21.541Z,102184.13
2022-10-07T11:45:03.537Z,102176.97
2022-10-07T11:47:11.255Z,102175.47
2022-10-07T11:49:21.858Z,102178.00
2022-10-07T11:51:30.253Z,102168.09
2022-10-07T11:53:36.400Z,102155.78
2022-10-07T11:55:44.109Z,102161.78
2022-10-07T11:57:54.702Z,102159.63
2022-10-07T12:00:08.174Z,102148.00
2022-10-07T12:02:30.130Z,102151.84
2022-10-07T12:04:35.185Z,102147.59
2022-10-07T12:06:36.659Z,102145.47
2022-10-07T12:08:41.907Z,102136.94
2022-10-07T12:10:43.534Z,102136.25
2022-10-07T12:12:46.164Z,102130.97
2022-10-07T12:15:02.191Z,102129.50
2022-10-07T12:17:22.553Z,102127.31
2022-10-07T12:19:24.257Z,102115.41
2022-10-07T12:21:25.694Z,102109.41
2022-10-07T12:23:28.359Z,102107.94
2022-10-07T12:25:32.299Z,102109.94
2022-10-07T12:27:35.466Z,102102.38
2022-10-07T12:29:49.121Z,102102.03
2022-10-07T12:31:51.217Z,102102.41
2022-10-07T12:34:09.443Z,102096.28
2022-10-07T12:36:23.730Z,102093.03
2022-10-07T12:38:31.465Z,102101.06
2022-10-07T12:40:35.508Z,102093.25
2022-10-07T12:42:37.190Z,102094.91
2022-10-07T12:44:52.824Z,102089.44
2022-10-07T12:46:58.020Z,102084.34
2022-10-07T12:49:22.680Z,102090.00
2022-10-07T12:51:38.673Z,102093.88
2022-10-07T12:53:41.646Z,102088.78
2022-10-07T12:55:49.364Z,102082.63
2022-10-07T12:57:53.416Z,102089.00
2022-10-07T13:00:10.517Z,102079.34
2022-10-07T13:02:31.339Z,102079.59
2022-10-07T13:05:02.616Z,102069.16
2022-10-07T13:07:51.826Z,102071.38
2022-10-07T13:10:09.502Z,102068.97
2022-10-07T13:12:28.986Z,102064.72
2022-10-07T13:14:42.733Z,102053.25
2022-10-07T13:16:54.125Z,102050.56
2022-10-07T13:19:04.465Z,102050.59
2022-10-07T13:21:47.132Z,102053.44
2022-10-07T13:23:54.498Z,102040.19
2022-10-07T13:25:59.121Z,102042.81
2022-10-07T13:28:00.704Z,102044.44
2022-10-07T13:30:06.148Z,102042.56
2022-10-07T13:32:21.644Z,102040.75
2022-10-07T13:34:23.146Z,102046.09
2022-10-07T13:36:30.236Z,102041.56
2022-10-07T13:38:31.651Z,102037.94
2022-10-07T13:40:35.785Z,102042.41
2022-10-07T13:42:37.262Z,102030.94
2022-10-07T13:44:43.615Z,102028.13
2022-10-07T13:46:54.918Z,102021.84
2022-10-07T13:48:57.160Z,102016.56
2022-10-07T13:50:59.698Z,102014.84
2022-10-07T13:53:01.456Z,102003.28
2022-10-07T13:55:03.310Z,101995.09
2022-10-07T13:57:08.924Z,101986.19
2022-10-07T13:59:18.523Z,101992.47
2022-10-07T14:01:20.569Z,101975.56
2022-10-07T14:03:22.088Z,101973.84
2022-10-07T14:05:27.708Z,101979.13
2022-10-07T14:07:29.341Z,101979.13
2022-10-07T14:09:37.129Z,101973.72
2022-10-07T14:11:38.722Z,101982.78
2022-10-07T14:13:42.859Z,101981.91
2022-10-07T14:15:49.651Z,101973.97
2022-10-07T14:17:58.686Z,101972.31
2022-10-07T14:20:05.435Z,101981.25
2022-10-07T14:22:19.092Z,101968.09
2022-10-07T14:24:20.827Z,101962.81
2022-10-07T14:26:22.419Z,101964.63
2022-10-07T14:28:23.936Z,101958.56
2022-10-07T14:30:25.938Z,101947.69
2022-10-07T14:32:46.314Z,101952.28
2022-10-07T14:35:06.411Z,101950.53
2022-10-07T14:37:19.646Z,101945.25
2022-10-07T14:39:32.412Z,101936.44
2022-10-07T14:41:33.838Z,101940.09
2022-10-07T14:43:36.196Z,101934.00
2022-10-07T14:45:37.647Z,101938.44
2022-10-07T14:47:41.309Z,101939.41
2022-10-07T14:49:42.751Z,101937.75
2022-10-07T14:51:46.208Z,101937.94
2022-10-07T14:53:51.034Z,101930.84
2022-10-07T14:55:52.708Z,101929.03
2022-10-07T14:57:55.209Z,101928.22
2022-10-07T14:59:56.694Z,101925.69
2022-10-07T15:01:58.129Z,101927.53
2022-10-07T15:03:59.902Z,101916.16
2022-10-07T15:06:01.873Z,101921.66
2022-10-07T15:08:03.967Z,101914.59
2022-10-07T15:10:16.082Z,101910.47
2022-10-07T15:12:17.562Z,101913.44
2022-10-07T15:14:19.128Z,101909.03
2022-10-07T15:16:23.405Z,101900.22
2022-10-07T15:18:24.899Z,101903.13
2022-10-07T15:20:26.375Z,101896.91
2022-10-07T15:22:27.879Z,101901.38
2022-10-07T15:24:31.838Z,101894.44
2022-10-07T15:26:33.370Z,101895.31
2022-10-07T15:28:34.863Z,101895.41
2022-10-07T15:30:39.429Z,101895.44
2022-10-07T15:32:41.141Z,101892.84
2022-10-07T15:34:42.546Z,101881.34
2022-10-07T15:36:44.231Z,101881.47
2022-10-07T15:38:45.746Z,101881.47
2022-10-07T15:40:55.301Z,101879.72
2022-10-07T15:42:58.127Z,101883.22
2022-10-07T15:44:59.640Z,101873.34
2022-10-07T15:47:01.057Z,101879.41
2022-10-07T15:49:03.747Z,101867.81
2022-10-07T15:51:05.300Z,101865.34
2022-10-07T15:53:06.747Z,101860.19
2022-10-07T15:55:08.986Z,101870.09
2022-10-07T15:57:10.436Z,101870.22
2022-10-07T15:59:11.998Z,101868.59
2022-10-07T16:01:14.670Z,101868.72
2022-10-07T16:03:17.017Z,101879.59
2022-10-07T16:05:18.465Z,101875.22
2022-10-07T16:07:19.918Z,101871.91
2022-10-07T16:09:22.550Z,101882.59
2022-10-07T16:11:24.924Z,101873.03
2022-10-07T16:13:27.017Z,101870.66
2022-10-07T16:15:28.626Z,101872.50
2022-10-07T16:17:30.176Z,101878.88
2022-10-07T16:19:31.622Z,101871.84
2022-10-07T16:21:36.066Z,101867.63
2022-10-07T16:23:39.362Z,101869.34
2022-10-07T16:25:40.778Z,101864.94
2022-10-07T16:28:00.597Z,101867.66
2022-10-07T16:30:20.697Z,101867.84
2022-10-07T16:32:22.202Z,101868.00
2022-10-07T16:34:24.001Z,101865.44
2022-10-07T16:36:26.305Z,101863.88
2022-10-07T16:38:27.745Z,101866.72
2022-10-07T16:40:29.167Z,101858.81
2022-10-07T16:42:30.606Z,101862.50
2022-10-07T16:44:32.172Z,101858.16
2022-10-07T16:46:34.323Z,101860.06
2022-10-07T16:48:40.956Z,101857.59
2022-10-07T16:50:47.011Z,101856.94
2022-10-07T16:52:48.472Z,101853.56
2022-10-07T16:54:49.886Z,101845.78
2022-10-07T16:56:52.704Z,101852.97
2022-10-07T16:58:56.531Z,101854.72
2022-10-07T17:01:05.348Z,101846.13
2022-10-07T17:03:07.211Z,101852.31
2022-10-07T17:05:11.086Z,101850.63
2022-10-07T17:07:12.528Z,101850.78
2022-10-07T17:09:14.922Z,101845.56
2022-10-07T17:11:30.667Z,101843.19
2022-10-07T17:13:34.015Z,101850.34
2022-10-07T17:15:39.513Z,101846.81
2022-10-07T17:17:41.057Z,101843.34
2022-10-07T17:19:42.474Z,101847.03
2022-10-07T17:21:46.336Z,101838.28
2022-10-07T17:23:48.812Z,101833.88
2022-10-07T17:25:50.224Z,101842.81
2022-10-07T17:27:51.978Z,101838.63
2022-10-07T17:29:53.883Z,101836.00
2022-10-07T17:31:56.030Z,101823.63
2022-10-07T17:33:58.624Z,101817.41
2022-10-07T17:36:06.763Z,101816.75
2022-10-07T17:38:08.558Z,101812.59
2022-10-07T17:40:10.464Z,101823.34
2022-10-07T17:42:11.959Z,101817.09
2022-10-07T17:44:13.741Z,101820.81
2022-10-07T17:46:17.518Z,101827.97
2022-10-07T17:48:19.017Z,101817.47
2022-10-07T17:50:20.486Z,101815.75
2022-10-07T17:52:27.228Z,101821.88
2022-10-07T17:54:29.026Z,101817.56
2022-10-07T17:56:34.646Z,101820.28
2022-10-07T17:58:38.252Z,101806.34
2022-10-07T18:00:40.067Z,101808.44
2022-10-07T18:02:41.577Z,101810.28
2022-10-07T18:04:43.466Z,101809.50
2022-10-07T18:06:46.796Z,101804.25
2022-10-07T18:08:48.308Z,101802.47
2022-10-07T18:10:51.833Z,101799.88
2022-10-07T18:13:11.562Z,101797.41
2022-10-07T18:15:23.222Z,101802.88
2022-10-07T18:17:24.992Z,101803.69
2022-10-07T18:19:27.304Z,101803.66
2022-10-07T18:21:31.812Z,101806.31
2022-10-07T18:23:33.305Z,101803.69
2022-10-07T18:25:35.515Z,101806.44
2022-10-07T18:27:37.163Z,101796.91
2022-10-07T18:29:38.933Z,101798.81
2022-10-07T18:31:40.433Z,101800.78
2022-10-07T18:33:42.567Z,101798.28
2022-10-07T18:35:44.064Z,101797.72
2022-10-07T18:37:45.689Z,101793.41
2022-10-07T18:39:47.287Z,101791.81
2022-10-07T18:41:48.836Z,101789.25
2022-10-07T18:43:55.697Z,101786.63
2022-10-07T18:46:10.348Z,101784.06
2022-10-07T18:48:11.872Z,101782.41
2022-10-07T18:50:13.337Z,101791.16
2022-10-07T18:52:15.018Z,101787.59
2022-10-07T18:54:17.629Z,101789.38
2022-10-07T18:56:22.879Z,101783.28
2022-10-07T18:58:24.533Z,101783.34
2022-10-07T19:00:25.990Z,101790.47
2022-10-07T19:02:27.431Z,101780.84
2022-10-07T19:04:30.893Z,101784.53
2022-10-07T19:06:35.504Z,101784.69
2022-10-07T19:08:37.079Z,101783.03
2022-10-07T19:10:41.855Z,101779.63
2022-10-07T19:13:01.793Z,101769.97
2022-10-07T19:15:03.705Z,101773.53
2022-10-07T19:17:05.192Z,101767.34
2022-10-07T19:19:09.069Z,101765.56
2022-10-07T19:21:12.468Z,101770.88
2022-10-07T19:23:13.888Z,101767.47
2022-10-07T19:25:33.974Z,101766.50
2022-10-07T19:27:35.460Z,101763.88
2022-10-07T19:29:36.919Z,101763.06
2022-10-07T19:31:41.409Z,101767.47
2022-10-07T19:33:44.995Z,101763.97
2022-10-07T19:35:52.619Z,101765.84
2022-10-07T19:37:54.050Z,101764.22
2022-10-07T19:39:55.474Z,101767.81
2022-10-07T19:41:58.856Z,101757.31
2022-10-07T19:44:01.182Z,101760.91
2022-10-07T19:46:02.706Z,101758.31
2022-10-07T19:48:08.350Z,101757.50
2022-10-07T19:50:13.061Z,101754.06
2022-10-07T19:52:14.676Z,101756.78
2022-10-07T19:54:16.322Z,101756.91
2022-10-07T19:56:23.794Z,101759.69
2022-10-07T19:58:26.949Z,101760.63
2022-10-07T20:00:30.101Z,101753.53
2022-10-07T20:02:31.575Z,101749.09
2022-10-07T20:04:33.031Z,101748.25
2022-10-07T20:06:38.787Z,101747.56
2022-10-07T20:08:46.473Z,101742.31
2022-10-07T20:10:47.918Z,101747.63
2022-10-07T20:12:49.968Z,101741.50
2022-10-07T20:14:51.581Z,101742.44
2022-10-07T20:16:56.299Z,101737.13
2022-10-07T20:19:01.964Z,101733.59
2022-10-07T20:21:13.072Z,101736.25
2022-10-07T20:23:15.005Z,101732.84
2022-10-07T20:25:16.548Z,101738.13
2022-10-07T20:27:18.593Z,101738.09
2022-10-07T20:29:25.144Z,101736.31
2022-10-07T20:31:30.894Z,101730.09
2022-10-07T20:33:44.146Z,101729.25
2022-10-07T20:35:46.477Z,101724.06
2022-10-07T20:37:47.918Z,101725.91
2022-10-07T20:40:07.880Z,101725.94
2022-10-07T20:42:22.278Z,101721.53
2022-10-07T20:44:23.726Z,101717.94
2022-10-07T20:46:25.154Z,101717.19
2022-10-07T20:48:29.011Z,101718.94
2022-10-07T20:50:30.444Z,101710.09
2022-10-07T20:52:34.764Z,101705.72
2022-10-07T20:54:36.234Z,101707.63
2022-10-07T20:56:37.646Z,101705.88
2022-10-07T20:58:39.153Z,101706.75
2022-10-07T21:00:41.238Z,101703.22
2022-10-07T21:02:44.213Z,101697.91
2022-10-07T21:04:49.175Z,101698.81
2022-10-07T21:06:51.279Z,101696.16
2022-10-07T21:08:54.112Z,101695.31
2022-10-07T21:11:02.530Z,101690.03
2022-10-07T21:13:03.997Z,101690.00
2022-10-07T21:15:05.996Z,101679.44
2022-10-07T21:17:07.560Z,101678.53
2022-10-07T21:19:09.336Z,101675.88
2022-10-07T21:21:11.567Z,101676.75
2022-10-07T21:23:13.032Z,101668.78
2022-10-07T21:25:14.452Z,101662.66
2022-10-07T21:27:15.930Z,101667.03
2022-10-07T21:29:18.888Z,101671.50
2022-10-07T21:31:22.008Z,101663.59
2022-10-07T21:33:24.266Z,101660.09
2022-10-07T21:35:25.697Z,101653.97
2022-10-07T21:37:27.187Z,101650.53
2022-10-07T21:39:28.922Z,101647.88
2022-10-07T21:41:34.178Z,101642.50
2022-10-07T21:43:35.606Z,101635.44
2022-10-07T21:45:38.963Z,101628.41
2022-10-07T21:47:40.383Z,101622.31
2022-10-07T21:49:41.833Z,101630.28
2022-10-07T21:51:43.521Z,101632.97
2022-10-07T21:53:50.245Z,101626.81
2022-10-07T21:55:52.300Z,101621.53
2022-10-07T21:57:53.741Z,101619.69
2022-10-07T21:59:55.157Z,101622.28
2022-10-07T22:01:56.693Z,101621.44
2022-10-07T22:04:01.255Z,101626.69
2022-10-07T22:06:08.275Z,101632.13
2022-10-07T22:08:33.773Z,101626.84
2022-10-07T22:10:35.231Z,101620.72
2022-10-07T22:12:36.665Z,101624.25
2022-10-07T22:14:38.147Z,101620.81
2022-10-07T22:16:39.665Z,101621.69
2022-10-07T22:18:43.780Z,101619.00
2022-10-07T22:20:45.247Z,101616.38
2022-10-07T22:22:46.837Z,101610.22
2022-10-07T22:24:48.576Z,101613.78
2022-10-07T22:26:51.420Z,101607.72
2022-10-07T22:28:53.211Z,101607.72
2022-10-07T22:30:54.658Z,101604.22
2022-10-07T22:32:56.136Z,101606.91
2022-10-07T22:35:15.926Z,101598.09
2022-10-07T22:37:17.478Z,101606.06
2022-10-07T22:39:18.901Z,101599.06
2022-10-07T22:41:20.388Z,101600.88
2022-10-07T22:43:21.827Z,101597.44
2022-10-07T22:45:23.301Z,101600.97
2022-10-07T22:47:24.813Z,101593.09
2022-10-07T22:49:29.807Z,101592.22
2022-10-07T22:51:31.809Z,101588.72
2022-10-07T22:53:34.953Z,101587.91
2022-10-07T22:55:37.194Z,101585.34
2022-10-07T22:57:38.813Z,101587.09
2022-10-07T22:59:40.238Z,101583.66
2022-10-07T23:01:41.682Z,101581.06
2022-10-07T23:03:44.156Z,101588.13
2022-10-07T23:05:49.306Z,101582.03
2022-10-07T23:07:50.764Z,101584.72
2022-10-07T23:09:52.203Z,101582.16
2022-10-07T23:11:53.634Z,101575.09
2022-10-07T23:13:55.512Z,101578.66
2022-10-07T23:16:02.270Z,101573.44
2022-10-07T23:18:03.825Z,101580.50
2022-10-07T23:20:05.806Z,101576.16
2022-10-07T23:22:09.278Z,101588.56
2022-10-07T23:24:11.255Z,101584.22
2022-10-07T23:26:15.276Z,101576.38
2022-10-07T23:28:16.920Z,101577.31
2022-10-07T23:30:18.398Z,101567.66
2022-10-07T23:32:19.945Z,101564.19
2022-10-07T23:34:21.762Z,101566.81
2022-10-07T23:36:24.938Z,101559.81
2022-10-07T23:38:27.309Z,101561.63
2022-10-07T23:40:28.754Z,101561.63
2022-10-07T23:42:30.199Z,101558.91
2022-10-07T23:44:31.644Z,101559.75
2022-10-07T23:46:35.862Z,101552.63
2022-10-07T23:48:37.378Z,101542.94
2022-10-07T23:50:43.020Z,101544.66
2022-10-07T23:52:44.904Z,101548.19